sensor_id;sensor_type;location;lat;lon;timestamp;P1;durP1;ratioP1;P2;durP2;ratioP2
66567;SDS011;53422;49.296;6.900;2024-03-06T00:01:41;9.02;;;4.85;;
66567;SDS011;53422;49.296;6.900;2024-03-06T00:04:06;11.13;;;4.28;;
66567;SDS011;53422;49.296;6.900;2024-03-06T00:06:32;9.48;;;4.55;;
66567;SDS011;53422;49.296;6.900;2024-03-06T00:08:58;10.68;;;5.32;;
66567;SDS011;53422;49.296;6.900;2024-03-06T00:11:24;12.52;;;5.10;;
66567;SDS011;53422;49.296;6.900;2024-03-06T00:13:50;9.65;;;4.82;;
66567;SDS011;53422;49.296;6.900;2024-03-06T00:16:16;10.63;;;4.97;;
66567;SDS011;53422;49.296;6.900;2024-03-06T00:18:41;9.23;;;4.47;;
66567;SDS011;53422;49.296;6.900;2024-03-06T00:21:07;11.73;;;4.95;;
66567;SDS011;53422;49.296;6.900;2024-03-06T00:23:34;7.00;;;4.25;;
66567;SDS011;53422;49.296;6.900;2024-03-06T00:26:00;9.00;;;4.18;;
66567;SDS011;53422;49.296;6.900;2024-03-06T00:28:27;11.60;;;4.53;;
66567;SDS011;53422;49.296;6.900;2024-03-06T00:30:53;9.50;;;4.45;;
66567;SDS011;53422;49.296;6.900;2024-03-06T00:33:18;8.98;;;4.05;;
66567;SDS011;53422;49.296;6.900;2024-03-06T00:35:44;8.73;;;4.40;;
66567;SDS011;53422;49.296;6.900;2024-03-06T00:38:10;8.45;;;4.57;;
66567;SDS011;53422;49.296;6.900;2024-03-06T00:40:36;11.32;;;4.85;;
66567;SDS011;53422;49.296;6.900;2024-03-06T00:43:01;10.75;;;4.47;;
66567;SDS011;53422;49.296;6.900;2024-03-06T00:45:27;9.10;;;4.80;;
66567;SDS011;53422;49.296;6.900;2024-03-06T00:47:53;10.20;;;4.93;;
66567;SDS011;53422;49.296;6.900;2024-03-06T00:50:18;8.40;;;4.45;;
66567;SDS011;53422;49.296;6.900;2024-03-06T00:55:12;8.95;;;3.80;;
66567;SDS011;53422;49.296;6.900;2024-03-06T00:57:38;8.52;;;3.75;;
66567;SDS011;53422;49.296;6.900;2024-03-06T01:00:04;6.45;;;3.55;;
66567;SDS011;53422;49.296;6.900;2024-03-06T01:02:39;8.23;;;4.07;;
66567;SDS011;53422;49.296;6.900;2024-03-06T01:05:05;9.85;;;4.05;;
66567;SDS011;53422;49.296;6.900;2024-03-06T01:07:32;11.45;;;4.03;;
66567;SDS011;53422;49.296;6.900;2024-03-06T01:09:58;9.88;;;4.65;;
66567;SDS011;53422;49.296;6.900;2024-03-06T01:12:24;6.75;;;3.97;;
66567;SDS011;53422;49.296;6.900;2024-03-06T01:14:50;11.20;;;4.53;;
66567;SDS011;53422;49.296;6.900;2024-03-06T01:17:16;10.88;;;4.63;;
66567;SDS011;53422;49.296;6.900;2024-03-06T01:19:42;9.57;;;5.00;;
66567;SDS011;53422;49.296;6.900;2024-03-06T01:22:10;9.88;;;4.43;;
66567;SDS011;53422;49.296;6.900;2024-03-06T01:24:38;11.18;;;4.72;;
66567;SDS011;53422;49.296;6.900;2024-03-06T01:27:04;9.60;;;4.35;;
66567;SDS011;53422;49.296;6.900;2024-03-06T01:29:30;11.07;;;4.65;;
66567;SDS011;53422;49.296;6.900;2024-03-06T01:31:55;7.97;;;3.85;;
66567;SDS011;53422;49.296;6.900;2024-03-06T01:34:21;7.72;;;3.90;;
66567;SDS011;53422;49.296;6.900;2024-03-06T01:36:50;6.88;;;3.92;;
66567;SDS011;53422;49.296;6.900;2024-03-06T01:39:16;6.95;;;3.38;;
66567;SDS011;53422;49.296;6.900;2024-03-06T01:41:48;7.72;;;3.90;;
66567;SDS011;53422;49.296;6.900;2024-03-06T01:44:15;9.32;;;3.53;;
66567;SDS011;53422;49.296;6.900;2024-03-06T01:46:42;8.07;;;3.67;;
66567;SDS011;53422;49.296;6.900;2024-03-06T01:49:09;9.77;;;3.25;;
66567;SDS011;53422;49.296;6.900;2024-03-06T01:51:40;8.30;;;3.45;;
66567;SDS011;53422;49.296;6.900;2024-03-06T01:54:07;8.15;;;3.33;;
66567;SDS011;53422;49.296;6.900;2024-03-06T01:56:35;9.90;;;3.88;;
66567;SDS011;53422;49.296;6.900;2024-03-06T01:59:02;9.60;;;3.70;;
66567;SDS011;53422;49.296;6.900;2024-03-06T02:01:29;7.35;;;4.13;;
66567;SDS011;53422;49.296;6.900;2024-03-06T02:03:55;7.20;;;3.90;;
66567;SDS011;53422;49.296;6.900;2024-03-06T02:06:21;8.25;;;4.35;;
66567;SDS011;53422;49.296;6.900;2024-03-06T02:08:47;6.32;;;3.55;;
66567;SDS011;53422;49.296;6.900;2024-03-06T02:11:14;6.85;;;3.38;;
66567;SDS011;53422;49.296;6.900;2024-03-06T02:13:41;8.50;;;3.92;;
66567;SDS011;53422;49.296;6.900;2024-03-06T02:16:08;7.75;;;4.15;;
66567;SDS011;53422;49.296;6.900;2024-03-06T02:18:34;7.20;;;3.95;;
66567;SDS011;53422;49.296;6.900;2024-03-06T02:21:01;7.82;;;3.28;;
66567;SDS011;53422;49.296;6.900;2024-03-06T02:23:27;6.78;;;3.83;;
66567;SDS011;53422;49.296;6.900;2024-03-06T02:25:53;10.93;;;3.90;;
66567;SDS011;53422;49.296;6.900;2024-03-06T02:28:19;9.60;;;3.78;;
66567;SDS011;53422;49.296;6.900;2024-03-06T02:30:44;8.48;;;3.90;;
66567;SDS011;53422;49.296;6.900;2024-03-06T02:33:10;8.55;;;3.65;;
66567;SDS011;53422;49.296;6.900;2024-03-06T02:35:36;7.80;;;3.78;;
66567;SDS011;53422;49.296;6.900;2024-03-06T02:38:03;8.13;;;4.15;;
66567;SDS011;53422;49.296;6.900;2024-03-06T02:40:32;6.07;;;3.20;;
66567;SDS011;53422;49.296;6.900;2024-03-06T02:42:57;7.43;;;3.78;;
66567;SDS011;53422;49.296;6.900;2024-03-06T02:45:23;7.15;;;3.80;;
66567;SDS011;53422;49.296;6.900;2024-03-06T02:47:49;8.35;;;3.63;;
66567;SDS011;53422;49.296;6.900;2024-03-06T02:50:14;8.25;;;3.55;;
66567;SDS011;53422;49.296;6.900;2024-03-06T02:52:40;7.65;;;3.88;;
66567;SDS011;53422;49.296;6.900;2024-03-06T02:55:06;8.95;;;3.75;;
66567;SDS011;53422;49.296;6.900;2024-03-06T02:57:32;7.50;;;3.67;;
66567;SDS011;53422;49.296;6.900;2024-03-06T02:59:58;5.88;;;3.53;;
66567;SDS011;53422;49.296;6.900;2024-03-06T03:02:24;10.60;;;3.90;;
66567;SDS011;53422;49.296;6.900;2024-03-06T03:04:53;7.35;;;4.10;;
66567;SDS011;53422;49.296;6.900;2024-03-06T03:07:19;7.20;;;3.40;;
66567;SDS011;53422;49.296;6.900;2024-03-06T03:09:45;6.18;;;3.53;;
66567;SDS011;53422;49.296;6.900;2024-03-06T03:12:12;5.85;;;3.63;;
66567;SDS011;53422;49.296;6.900;2024-03-06T03:14:39;8.50;;;3.70;;
66567;SDS011;53422;49.296;6.900;2024-03-06T03:17:06;8.07;;;3.03;;
66567;SDS011;53422;49.296;6.900;2024-03-06T03:19:32;5.70;;;2.72;;
66567;SDS011;53422;49.296;6.900;2024-03-06T03:21:57;7.70;;;3.05;;
66567;SDS011;53422;49.296;6.900;2024-03-06T03:24:23;7.57;;;3.60;;
66567;SDS011;53422;49.296;6.900;2024-03-06T03:26:51;7.85;;;3.42;;
66567;SDS011;53422;49.296;6.900;2024-03-06T03:29:17;5.47;;;3.03;;
66567;SDS011;53422;49.296;6.900;2024-03-06T03:31:42;7.32;;;3.40;;
66567;SDS011;53422;49.296;6.900;2024-03-06T03:34:08;7.40;;;3.47;;
66567;SDS011;53422;49.296;6.900;2024-03-06T03:36:39;6.78;;;3.22;;
66567;SDS011;53422;49.296;6.900;2024-03-06T03:39:05;7.22;;;3.63;;
66567;SDS011;53422;49.296;6.900;2024-03-06T03:41:33;6.72;;;3.50;;
66567;SDS011;53422;49.296;6.900;2024-03-06T03:43:58;6.65;;;3.88;;
66567;SDS011;53422;49.296;6.900;2024-03-06T03:46:24;7.15;;;3.20;;
66567;SDS011;53422;49.296;6.900;2024-03-06T03:48:49;5.97;;;3.42;;
66567;SDS011;53422;49.296;6.900;2024-03-06T03:51:15;7.65;;;3.10;;
66567;SDS011;53422;49.296;6.900;2024-03-06T03:53:41;7.18;;;3.28;;
66567;SDS011;53422;49.296;6.900;2024-03-06T03:56:07;6.28;;;3.03;;
66567;SDS011;53422;49.296;6.900;2024-03-06T03:58:32;7.15;;;3.35;;
66567;SDS011;53422;49.296;6.900;2024-03-06T04:00:58;9.10;;;3.47;;
66567;SDS011;53422;49.296;6.900;2024-03-06T04:03:24;6.85;;;3.95;;
66567;SDS011;53422;49.296;6.900;2024-03-06T04:05:50;11.07;;;3.55;;
66567;SDS011;53422;49.296;6.900;2024-03-06T04:08:15;9.02;;;3.20;;
66567;SDS011;53422;49.296;6.900;2024-03-06T04:10:42;7.68;;;3.67;;
66567;SDS011;53422;49.296;6.900;2024-03-06T04:13:11;7.15;;;3.08;;
66567;SDS011;53422;49.296;6.900;2024-03-06T04:15:37;8.13;;;3.63;;
66567;SDS011;53422;49.296;6.900;2024-03-06T04:18:03;7.95;;;3.60;;
66567;SDS011;53422;49.296;6.900;2024-03-06T04:20:29;7.13;;;3.67;;
66567;SDS011;53422;49.296;6.900;2024-03-06T04:22:54;7.22;;;3.03;;
66567;SDS011;53422;49.296;6.900;2024-03-06T04:25:20;6.70;;;3.13;;
66567;SDS011;53422;49.296;6.900;2024-03-06T04:27:45;6.40;;;3.05;;
66567;SDS011;53422;49.296;6.900;2024-03-06T04:30:11;6.88;;;3.35;;
66567;SDS011;53422;49.296;6.900;2024-03-06T04:32:37;6.75;;;3.22;;
66567;SDS011;53422;49.296;6.900;2024-03-06T04:35:03;6.63;;;3.38;;
66567;SDS011;53422;49.296;6.900;2024-03-06T04:37:29;4.68;;;3.13;;
66567;SDS011;53422;49.296;6.900;2024-03-06T04:39:55;7.57;;;3.50;;
66567;SDS011;53422;49.296;6.900;2024-03-06T04:42:21;7.32;;;3.03;;
66567;SDS011;53422;49.296;6.900;2024-03-06T04:44:47;7.65;;;2.85;;
66567;SDS011;53422;49.296;6.900;2024-03-06T04:47:13;7.70;;;3.80;;
66567;SDS011;53422;49.296;6.900;2024-03-06T04:49:38;7.90;;;3.13;;
66567;SDS011;53422;49.296;6.900;2024-03-06T04:52:04;8.90;;;3.10;;
66567;SDS011;53422;49.296;6.900;2024-03-06T04:54:29;5.65;;;2.88;;
66567;SDS011;53422;49.296;6.900;2024-03-06T04:56:55;5.43;;;3.38;;
66567;SDS011;53422;49.296;6.900;2024-03-06T04:59:21;4.75;;;2.80;;
66567;SDS011;53422;49.296;6.900;2024-03-06T05:01:47;5.38;;;3.50;;
66567;SDS011;53422;49.296;6.900;2024-03-06T05:04:13;4.75;;;2.90;;
66567;SDS011;53422;49.296;6.900;2024-03-06T05:06:38;5.32;;;2.65;;
66567;SDS011;53422;49.296;6.900;2024-03-06T05:09:04;5.85;;;3.17;;
66567;SDS011;53422;49.296;6.900;2024-03-06T05:11:30;4.95;;;2.78;;
66567;SDS011;53422;49.296;6.900;2024-03-06T05:14:00;9.73;;;3.22;;
66567;SDS011;53422;49.296;6.900;2024-03-06T05:16:25;7.75;;;2.92;;
66567;SDS011;53422;49.296;6.900;2024-03-06T05:18:51;8.23;;;3.25;;
66567;SDS011;53422;49.296;6.900;2024-03-06T05:21:17;6.40;;;3.28;;
66567;SDS011;53422;49.296;6.900;2024-03-06T05:23:44;7.47;;;3.67;;
66567;SDS011;53422;49.296;6.900;2024-03-06T05:26:10;8.10;;;3.25;;
66567;SDS011;53422;49.296;6.900;2024-03-06T05:28:35;8.73;;;4.00;;
66567;SDS011;53422;49.296;6.900;2024-03-06T05:31:13;6.15;;;3.38;;
66567;SDS011;53422;49.296;6.900;2024-03-06T05:33:44;7.22;;;3.38;;
66567;SDS011;53422;49.296;6.900;2024-03-06T05:36:10;5.75;;;2.80;;
66567;SDS011;53422;49.296;6.900;2024-03-06T05:38:36;8.15;;;3.35;;
66567;SDS011;53422;49.296;6.900;2024-03-06T05:41:01;8.25;;;3.42;;
66567;SDS011;53422;49.296;6.900;2024-03-06T05:43:27;6.43;;;3.17;;
66567;SDS011;53422;49.296;6.900;2024-03-06T05:45:53;7.38;;;3.08;;
66567;SDS011;53422;49.296;6.900;2024-03-06T05:48:18;6.88;;;3.28;;
66567;SDS011;53422;49.296;6.900;2024-03-06T05:50:44;8.70;;;3.30;;
66567;SDS011;53422;49.296;6.900;2024-03-06T05:53:09;8.23;;;4.00;;
66567;SDS011;53422;49.296;6.900;2024-03-06T05:55:36;7.25;;;3.45;;
66567;SDS011;53422;49.296;6.900;2024-03-06T05:58:02;7.13;;;3.60;;
66567;SDS011;53422;49.296;6.900;2024-03-06T06:00:28;7.20;;;3.17;;
66567;SDS011;53422;49.296;6.900;2024-03-06T06:02:53;7.22;;;3.63;;
66567;SDS011;53422;49.296;6.900;2024-03-06T06:05:19;6.88;;;3.33;;
66567;SDS011;53422;49.296;6.900;2024-03-06T06:07:47;6.63;;;3.42;;
66567;SDS011;53422;49.296;6.900;2024-03-06T06:10:13;6.38;;;3.00;;
66567;SDS011;53422;49.296;6.900;2024-03-06T06:12:39;5.60;;;3.03;;
66567;SDS011;53422;49.296;6.900;2024-03-06T06:15:06;11.05;;;4.15;;
66567;SDS011;53422;49.296;6.900;2024-03-06T06:17:33;6.40;;;2.85;;
66567;SDS011;53422;49.296;6.900;2024-03-06T06:19:59;10.32;;;4.55;;
66567;SDS011;53422;49.296;6.900;2024-03-06T06:22:27;16.45;;;4.80;;
66567;SDS011;53422;49.296;6.900;2024-03-06T06:24:52;9.40;;;4.03;;
66567;SDS011;53422;49.296;6.900;2024-03-06T06:27:20;15.57;;;6.88;;
66567;SDS011;53422;49.296;6.900;2024-03-06T06:29:45;18.85;;;7.93;;
66567;SDS011;53422;49.296;6.900;2024-03-06T06:32:11;24.83;;;8.45;;
66567;SDS011;53422;49.296;6.900;2024-03-06T06:34:37;18.33;;;7.50;;
66567;SDS011;53422;49.296;6.900;2024-03-06T06:37:02;13.65;;;7.30;;
66567;SDS011;53422;49.296;6.900;2024-03-06T06:39:28;12.25;;;6.10;;
66567;SDS011;53422;49.296;6.900;2024-03-06T06:41:54;15.07;;;6.30;;
66567;SDS011;53422;49.296;6.900;2024-03-06T06:44:19;10.15;;;4.82;;
66567;SDS011;53422;49.296;6.900;2024-03-06T06:46:45;13.95;;;5.53;;
66567;SDS011;53422;49.296;6.900;2024-03-06T06:49:10;14.30;;;5.93;;
66567;SDS011;53422;49.296;6.900;2024-03-06T06:51:36;15.50;;;5.80;;
66567;SDS011;53422;49.296;6.900;2024-03-06T06:54:02;10.05;;;5.00;;
66567;SDS011;53422;49.296;6.900;2024-03-06T06:56:29;12.05;;;5.90;;
66567;SDS011;53422;49.296;6.900;2024-03-06T06:58:54;10.27;;;5.05;;
66567;SDS011;53422;49.296;6.900;2024-03-06T07:01:21;16.40;;;6.00;;
66567;SDS011;53422;49.296;6.900;2024-03-06T07:03:47;17.15;;;6.10;;
66567;SDS011;53422;49.296;6.900;2024-03-06T07:06:12;10.70;;;5.00;;
66567;SDS011;53422;49.296;6.900;2024-03-06T07:08:38;13.27;;;5.15;;
66567;SDS011;53422;49.296;6.900;2024-03-06T07:11:04;14.10;;;5.57;;
66567;SDS011;53422;49.296;6.900;2024-03-06T07:13:30;12.48;;;5.90;;
66567;SDS011;53422;49.296;6.900;2024-03-06T07:15:55;12.45;;;5.82;;
66567;SDS011;53422;49.296;6.900;2024-03-06T07:18:21;16.35;;;5.40;;
66567;SDS011;53422;49.296;6.900;2024-03-06T07:20:47;16.75;;;6.03;;
66567;SDS011;53422;49.296;6.900;2024-03-06T07:23:12;18.23;;;5.75;;
66567;SDS011;53422;49.296;6.900;2024-03-06T07:25:38;13.80;;;6.20;;
66567;SDS011;53422;49.296;6.900;2024-03-06T07:28:04;9.60;;;5.40;;
66567;SDS011;53422;49.296;6.900;2024-03-06T07:30:30;12.38;;;5.03;;
66567;SDS011;53422;49.296;6.900;2024-03-06T07:32:56;11.05;;;5.03;;
66567;SDS011;53422;49.296;6.900;2024-03-06T07:35:22;12.30;;;5.30;;
66567;SDS011;53422;49.296;6.900;2024-03-06T07:37:48;11.40;;;5.25;;
66567;SDS011;53422;49.296;6.900;2024-03-06T07:40:14;11.45;;;5.00;;
66567;SDS011;53422;49.296;6.900;2024-03-06T07:42:40;12.25;;;5.40;;
66567;SDS011;53422;49.296;6.900;2024-03-06T07:45:06;12.15;;;5.53;;
66567;SDS011;53422;49.296;6.900;2024-03-06T07:47:35;13.77;;;6.20;;
66567;SDS011;53422;49.296;6.900;2024-03-06T07:50:02;11.60;;;5.70;;
66567;SDS011;53422;49.296;6.900;2024-03-06T07:52:30;15.15;;;6.50;;
66567;SDS011;53422;49.296;6.900;2024-03-06T07:54:56;13.40;;;5.97;;
66567;SDS011;53422;49.296;6.900;2024-03-06T07:57:23;10.20;;;6.00;;
66567;SDS011;53422;49.296;6.900;2024-03-06T07:59:49;16.48;;;7.28;;
66567;SDS011;53422;49.296;6.900;2024-03-06T08:02:16;13.95;;;6.60;;
66567;SDS011;53422;49.296;6.900;2024-03-06T08:04:42;15.48;;;6.60;;
66567;SDS011;53422;49.296;6.900;2024-03-06T08:07:08;13.50;;;7.30;;
66567;SDS011;53422;49.296;6.900;2024-03-06T08:09:34;15.40;;;6.32;;
66567;SDS011;53422;49.296;6.900;2024-03-06T08:11:59;13.43;;;6.40;;
66567;SDS011;53422;49.296;6.900;2024-03-06T08:14:25;15.40;;;6.55;;
66567;SDS011;53422;49.296;6.900;2024-03-06T08:16:52;18.10;;;7.47;;
66567;SDS011;53422;49.296;6.900;2024-03-06T08:19:19;16.63;;;7.97;;
66567;SDS011;53422;49.296;6.900;2024-03-06T08:21:44;15.07;;;7.40;;
66567;SDS011;53422;49.296;6.900;2024-03-06T08:24:11;10.15;;;6.07;;
66567;SDS011;53422;49.296;6.900;2024-03-06T08:26:37;17.20;;;7.25;;
66567;SDS011;53422;49.296;6.900;2024-03-06T08:29:02;13.82;;;6.07;;
66567;SDS011;53422;49.296;6.900;2024-03-06T08:31:28;15.27;;;6.55;;
66567;SDS011;53422;49.296;6.900;2024-03-06T08:33:54;15.27;;;7.07;;
66567;SDS011;53422;49.296;6.900;2024-03-06T08:36:20;18.10;;;7.03;;
66567;SDS011;53422;49.296;6.900;2024-03-06T08:38:46;14.70;;;7.05;;
66567;SDS011;53422;49.296;6.900;2024-03-06T08:41:11;16.38;;;6.35;;
66567;SDS011;53422;49.296;6.900;2024-03-06T08:43:37;16.02;;;6.25;;
66567;SDS011;53422;49.296;6.900;2024-03-06T08:46:03;17.23;;;6.72;;
66567;SDS011;53422;49.296;6.900;2024-03-06T08:48:28;11.38;;;5.82;;
66567;SDS011;53422;49.296;6.900;2024-03-06T08:50:55;13.30;;;6.03;;
66567;SDS011;53422;49.296;6.900;2024-03-06T08:53:20;14.48;;;5.78;;
66567;SDS011;53422;49.296;6.900;2024-03-06T08:55:46;11.93;;;5.25;;
66567;SDS011;53422;49.296;6.900;2024-03-06T08:58:12;13.43;;;5.65;;
66567;SDS011;53422;49.296;6.900;2024-03-06T09:00:39;9.15;;;4.65;;
66567;SDS011;53422;49.296;6.900;2024-03-06T09:03:04;13.05;;;4.93;;
66567;SDS011;53422;49.296;6.900;2024-03-06T09:05:30;11.35;;;4.80;;
66567;SDS011;53422;49.296;6.900;2024-03-06T09:07:56;11.82;;;5.40;;
66567;SDS011;53422;49.296;6.900;2024-03-06T09:10:22;12.75;;;4.63;;
66567;SDS011;53422;49.296;6.900;2024-03-06T09:12:48;14.73;;;5.20;;
66567;SDS011;53422;49.296;6.900;2024-03-06T09:15:14;10.93;;;5.10;;
66567;SDS011;53422;49.296;6.900;2024-03-06T09:17:41;12.27;;;4.82;;
66567;SDS011;53422;49.296;6.900;2024-03-06T09:20:07;13.27;;;5.45;;
66567;SDS011;53422;49.296;6.900;2024-03-06T09:22:39;14.05;;;5.45;;
66567;SDS011;53422;49.296;6.900;2024-03-06T09:25:05;12.45;;;5.65;;
66567;SDS011;53422;49.296;6.900;2024-03-06T09:27:32;14.65;;;6.13;;
66567;SDS011;53422;49.296;6.900;2024-03-06T09:29:57;15.02;;;5.75;;
66567;SDS011;53422;49.296;6.900;2024-03-06T09:32:23;16.67;;;6.85;;
66567;SDS011;53422;49.296;6.900;2024-03-06T09:34:51;16.02;;;6.65;;
66567;SDS011;53422;49.296;6.900;2024-03-06T09:37:17;17.65;;;6.53;;
66567;SDS011;53422;49.296;6.900;2024-03-06T09:39:43;19.30;;;6.57;;
66567;SDS011;53422;49.296;6.900;2024-03-06T09:42:12;13.90;;;5.60;;
66567;SDS011;53422;49.296;6.900;2024-03-06T09:44:38;17.08;;;5.68;;
66567;SDS011;53422;49.296;6.900;2024-03-06T09:47:04;17.92;;;6.85;;
66567;SDS011;53422;49.296;6.900;2024-03-06T09:49:32;17.63;;;6.65;;
66567;SDS011;53422;49.296;6.900;2024-03-06T09:51:59;17.05;;;6.35;;
66567;SDS011;53422;49.296;6.900;2024-03-06T09:54:26;17.83;;;6.07;;
66567;SDS011;53422;49.296;6.900;2024-03-06T09:56:53;17.20;;;6.50;;
66567;SDS011;53422;49.296;6.900;2024-03-06T09:59:20;16.08;;;6.90;;
66567;SDS011;53422;49.296;6.900;2024-03-06T10:01:50;21.23;;;8.07;;
66567;SDS011;53422;49.296;6.900;2024-03-06T10:06:57;25.95;;;7.35;;
66567;SDS011;53422;49.296;6.900;2024-03-06T10:09:25;19.77;;;7.30;;
66567;SDS011;53422;49.296;6.900;2024-03-06T10:11:52;21.23;;;7.38;;
66567;SDS011;53422;49.296;6.900;2024-03-06T10:14:18;23.15;;;9.02;;
66567;SDS011;53422;49.296;6.900;2024-03-06T10:16:57;24.35;;;8.45;;
66567;SDS011;53422;49.296;6.900;2024-03-06T10:19:24;22.70;;;7.35;;
66567;SDS011;53422;49.296;6.900;2024-03-06T10:21:52;17.83;;;6.88;;
66567;SDS011;53422;49.296;6.900;2024-03-06T10:24:19;20.42;;;7.18;;
66567;SDS011;53422;49.296;6.900;2024-03-06T10:26:49;17.65;;;7.07;;
66567;SDS011;53422;49.296;6.900;2024-03-06T10:29:19;20.10;;;6.75;;
66567;SDS011;53422;49.296;6.900;2024-03-06T10:34:15;18.08;;;5.70;;
66567;SDS011;53422;49.296;6.900;2024-03-06T10:36:42;18.25;;;5.85;;
66567;SDS011;53422;49.296;6.900;2024-03-06T10:39:08;16.45;;;6.32;;
66567;SDS011;53422;49.296;6.900;2024-03-06T10:41:38;13.65;;;5.75;;
66567;SDS011;53422;49.296;6.900;2024-03-06T10:44:06;13.60;;;5.32;;
66567;SDS011;53422;49.296;6.900;2024-03-06T10:46:39;20.90;;;6.03;;
66567;SDS011;53422;49.296;6.900;2024-03-06T10:49:08;18.10;;;6.85;;
66567;SDS011;53422;49.296;6.900;2024-03-06T10:51:36;15.40;;;4.85;;
66567;SDS011;53422;49.296;6.900;2024-03-06T10:54:07;12.82;;;4.63;;
66567;SDS011;53422;49.296;6.900;2024-03-06T10:56:34;9.10;;;3.97;;
66567;SDS011;53422;49.296;6.900;2024-03-06T10:59:00;15.90;;;4.35;;
66567;SDS011;53422;49.296;6.900;2024-03-06T11:01:27;11.30;;;3.92;;
66567;SDS011;53422;49.296;6.900;2024-03-06T11:03:57;9.48;;;3.10;;
66567;SDS011;53422;49.296;6.900;2024-03-06T11:06:25;6.72;;;2.75;;
66567;SDS011;53422;49.296;6.900;2024-03-06T11:08:51;7.53;;;2.78;;
66567;SDS011;53422;49.296;6.900;2024-03-06T11:11:23;9.50;;;2.92;;
66567;SDS011;53422;49.296;6.900;2024-03-06T11:13:50;8.30;;;3.80;;
66567;SDS011;53422;49.296;6.900;2024-03-06T11:16:26;8.13;;;2.75;;
66567;SDS011;53422;49.296;6.900;2024-03-06T11:19:04;7.05;;;1.95;;
66567;SDS011;53422;49.296;6.900;2024-03-06T11:21:33;7.53;;;2.63;;
66567;SDS011;53422;49.296;6.900;2024-03-06T11:24:15;8.95;;;2.38;;
66567;SDS011;53422;49.296;6.900;2024-03-06T11:26:46;5.00;;;1.92;;
66567;SDS011;53422;49.296;6.900;2024-03-06T11:29:15;9.50;;;2.30;;
66567;SDS011;53422;49.296;6.900;2024-03-06T11:32:00;6.70;;;2.50;;
66567;SDS011;53422;49.296;6.900;2024-03-06T11:34:29;6.47;;;2.10;;
66567;SDS011;53422;49.296;6.900;2024-03-06T11:36:58;7.32;;;2.50;;
66567;SDS011;53422;49.296;6.900;2024-03-06T11:39:28;5.63;;;2.13;;
66567;SDS011;53422;49.296;6.900;2024-03-06T11:41:55;5.00;;;2.13;;
66567;SDS011;53422;49.296;6.900;2024-03-06T11:44:22;4.55;;;1.75;;
66567;SDS011;53422;49.296;6.900;2024-03-06T11:46:58;5.15;;;2.10;;
66567;SDS011;53422;49.296;6.900;2024-03-06T11:49:28;8.40;;;2.05;;
66567;SDS011;53422;49.296;6.900;2024-03-06T11:52:03;7.20;;;2.60;;
66567;SDS011;53422;49.296;6.900;2024-03-06T11:54:31;3.75;;;1.60;;
66567;SDS011;53422;49.296;6.900;2024-03-06T11:56:58;3.83;;;1.58;;
66567;SDS011;53422;49.296;6.900;2024-03-06T11:59:25;6.97;;;1.98;;
66567;SDS011;53422;49.296;6.900;2024-03-06T12:01:52;5.65;;;2.20;;
66567;SDS011;53422;49.296;6.900;2024-03-06T12:04:19;5.03;;;2.25;;
66567;SDS011;53422;49.296;6.900;2024-03-06T12:06:45;5.18;;;2.20;;
66567;SDS011;53422;49.296;6.900;2024-03-06T12:09:11;4.38;;;1.88;;
66567;SDS011;53422;49.296;6.900;2024-03-06T12:11:37;5.03;;;1.98;;
66567;SDS011;53422;49.296;6.900;2024-03-06T12:14:03;5.82;;;2.30;;
66567;SDS011;53422;49.296;6.900;2024-03-06T12:16:30;7.45;;;2.13;;
66567;SDS011;53422;49.296;6.900;2024-03-06T12:18:56;6.55;;;1.90;;
66567;SDS011;53422;49.296;6.900;2024-03-06T12:21:27;6.50;;;2.00;;
66567;SDS011;53422;49.296;6.900;2024-03-06T12:24:06;2.28;;;1.27;;
66567;SDS011;53422;49.296;6.900;2024-03-06T12:26:33;2.63;;;1.05;;
66567;SDS011;53422;49.296;6.900;2024-03-06T12:29:05;4.05;;;1.75;;
66567;SDS011;53422;49.296;6.900;2024-03-06T12:31:33;4.03;;;1.80;;
66567;SDS011;53422;49.296;6.900;2024-03-06T12:34:00;4.80;;;2.05;;
66567;SDS011;53422;49.296;6.900;2024-03-06T12:36:27;4.88;;;1.45;;
66567;SDS011;53422;49.296;6.900;2024-03-06T12:38:55;4.05;;;1.60;;
66567;SDS011;53422;49.296;6.900;2024-03-06T12:41:21;6.63;;;1.45;;
66567;SDS011;53422;49.296;6.900;2024-03-06T12:43:47;5.68;;;1.60;;
66567;SDS011;53422;49.296;6.900;2024-03-06T12:46:13;6.55;;;1.65;;
66567;SDS011;53422;49.296;6.900;2024-03-06T12:48:38;3.78;;;1.30;;
66567;SDS011;53422;49.296;6.900;2024-03-06T12:51:04;4.60;;;1.70;;
66567;SDS011;53422;49.296;6.900;2024-03-06T12:53:30;5.30;;;1.40;;
66567;SDS011;53422;49.296;6.900;2024-03-06T12:55:57;2.83;;;1.30;;
66567;SDS011;53422;49.296;6.900;2024-03-06T12:58:22;4.15;;;1.42;;
66567;SDS011;53422;49.296;6.900;2024-03-06T13:00:48;1.92;;;0.98;;
66567;SDS011;53422;49.296;6.900;2024-03-06T13:03:14;3.95;;;1.45;;
66567;SDS011;53422;49.296;6.900;2024-03-06T13:05:40;2.13;;;1.00;;
66567;SDS011;53422;49.296;6.900;2024-03-06T13:08:05;3.35;;;0.85;;
66567;SDS011;53422;49.296;6.900;2024-03-06T13:10:31;3.05;;;1.05;;
66567;SDS011;53422;49.296;6.900;2024-03-06T13:12:57;1.52;;;0.80;;
66567;SDS011;53422;49.296;6.900;2024-03-06T13:15:22;2.55;;;1.10;;
66567;SDS011;53422;49.296;6.900;2024-03-06T13:17:48;2.03;;;0.85;;
66567;SDS011;53422;49.296;6.900;2024-03-06T13:20:14;2.50;;;1.13;;
66567;SDS011;53422;49.296;6.900;2024-03-06T13:22:39;4.78;;;1.33;;
66567;SDS011;53422;49.296;6.900;2024-03-06T13:25:05;4.22;;;1.38;;
66567;SDS011;53422;49.296;6.900;2024-03-06T13:27:31;4.65;;;1.85;;
66567;SDS011;53422;49.296;6.900;2024-03-06T13:29:57;4.75;;;1.45;;
66567;SDS011;53422;49.296;6.900;2024-03-06T13:32:23;3.22;;;1.30;;
66567;SDS011;53422;49.296;6.900;2024-03-06T13:34:49;2.75;;;1.20;;
66567;SDS011;53422;49.296;6.900;2024-03-06T13:37:15;3.47;;;1.10;;
66567;SDS011;53422;49.296;6.900;2024-03-06T13:39:41;3.17;;;1.40;;
66567;SDS011;53422;49.296;6.900;2024-03-06T13:42:07;4.60;;;1.48;;
66567;SDS011;53422;49.296;6.900;2024-03-06T13:44:34;5.05;;;1.98;;
66567;SDS011;53422;49.296;6.900;2024-03-06T13:47:01;4.18;;;1.80;;
66567;SDS011;53422;49.296;6.900;2024-03-06T13:49:34;4.07;;;1.60;;
66567;SDS011;53422;49.296;6.900;2024-03-06T13:52:01;3.42;;;1.83;;
66567;SDS011;53422;49.296;6.900;2024-03-06T13:54:27;3.63;;;1.60;;
66567;SDS011;53422;49.296;6.900;2024-03-06T13:56:53;5.60;;;1.83;;
66567;SDS011;53422;49.296;6.900;2024-03-06T13:59:26;3.25;;;1.92;;
66567;SDS011;53422;49.296;6.900;2024-03-06T14:01:59;4.22;;;2.10;;
66567;SDS011;53422;49.296;6.900;2024-03-06T14:04:25;4.22;;;2.22;;
66567;SDS011;53422;49.296;6.900;2024-03-06T14:06:51;4.13;;;2.05;;
66567;SDS011;53422;49.296;6.900;2024-03-06T14:09:18;6.53;;;1.92;;
66567;SDS011;53422;49.296;6.900;2024-03-06T14:11:43;3.67;;;1.83;;
66567;SDS011;53422;49.296;6.900;2024-03-06T14:14:12;5.47;;;2.00;;
66567;SDS011;53422;49.296;6.900;2024-03-06T14:16:39;4.68;;;2.00;;
66567;SDS011;53422;49.296;6.900;2024-03-06T14:19:05;4.80;;;1.75;;
66567;SDS011;53422;49.296;6.900;2024-03-06T14:21:31;3.58;;;1.77;;
66567;SDS011;53422;49.296;6.900;2024-03-06T14:24:00;4.22;;;1.58;;
66567;SDS011;53422;49.296;6.900;2024-03-06T14:26:32;3.35;;;1.70;;
66567;SDS011;53422;49.296;6.900;2024-03-06T14:28:59;5.35;;;2.10;;
66567;SDS011;53422;49.296;6.900;2024-03-06T14:31:25;7.40;;;2.10;;
66567;SDS011;53422;49.296;6.900;2024-03-06T14:33:51;4.35;;;1.80;;
66567;SDS011;53422;49.296;6.900;2024-03-06T14:36:17;3.20;;;1.55;;
66567;SDS011;53422;49.296;6.900;2024-03-06T14:38:43;3.25;;;1.45;;
66567;SDS011;53422;49.296;6.900;2024-03-06T14:41:09;4.25;;;1.70;;
66567;SDS011;53422;49.296;6.900;2024-03-06T14:43:35;7.13;;;1.50;;
66567;SDS011;53422;49.296;6.900;2024-03-06T14:46:06;5.05;;;1.40;;
66567;SDS011;53422;49.296;6.900;2024-03-06T14:48:33;3.75;;;1.75;;